CGNBR VNLT-VNLK
Flight info
| Callsign | CGNBR |
|---|---|
| Flight time | 0h 45m |
| Altitude | 6500 |
| Route | DIRECT |
| Aircraft | DHC6/L-V/N |
Departure
| Time | 2025-12-08 20:41 |
|---|---|
| Airport | Langtang Airport (VNLT) |
Arrival
| Time | 2025-12-08 21:26 |
|---|---|
| Airport | Tenzing-Hillary Airport (VNLK) |
| Time | Latitude | Longitude | Altitude | Speed | Heading |
|---|---|---|---|---|---|
| 2025-12-08 20:34 | 28.19882 | 85.58701 | 12504 ft | 0 kts | 301° |
| 2025-12-08 20:36 | 28.20071 | 85.58397 | 12485 ft | 16 kts | 239° |
| 2025-12-08 20:37 | 28.20038 | 85.58373 | 12484 ft | 0 kts | 166° |
| 2025-12-08 20:37 | 28.20041 | 85.58372 | 12484 ft | 2 kts | 166° |
| 2025-12-08 20:38 | 28.20073 | 85.58363 | 12484 ft | 2 kts | 166° |
| 2025-12-08 20:38 | 28.20034 | 85.58429 | 12489 ft | 32 kts | 124° |
| 2025-12-08 20:39 | 28.19599 | 85.59349 | 12557 ft | 95 kts | 110° |
| 2025-12-08 20:39 | 28.19517 | 85.60090 | 12776 ft | 96 kts | 78° |
| 2025-12-08 20:40 | 28.19477 | 85.61713 | 12999 ft | 98 kts | 97° |
| 2025-12-08 20:41 | 28.19662 | 85.62534 | 12805 ft | 12 kts | 64° |
| 2025-12-08 20:41 | 28.19538 | 85.62754 | 12817 ft | 44 kts | 283° |
| 2025-12-08 20:42 | 28.19578 | 85.61720 | 13119 ft | 72 kts | 231° |
| 2025-12-08 20:42 | 28.19554 | 85.60575 | 13112 ft | 130 kts | 354° |
| 2025-12-08 20:43 | 28.19603 | 85.61472 | 12841 ft | 90 kts | 122° |
| 2025-12-08 20:43 | 28.19403 | 85.62039 | 12877 ft | 89 kts | 79° |
| 2025-12-08 20:43 | 28.20004 | 85.63825 | 13365 ft | 107 kts | 59° |
| 2025-12-08 20:44 | 28.20324 | 85.65253 | 13737 ft | 122 kts | 90° |
| 2025-12-08 20:45 | 28.21272 | 85.67897 | 14157 ft | 123 kts | 143° |
| 2025-12-08 20:45 | 28.19829 | 85.68729 | 14674 ft | 120 kts | 134° |
| 2025-12-08 20:45 | 28.19185 | 85.69836 | 14938 ft | 132 kts | 113° |
| 2025-12-08 20:46 | 28.18918 | 85.72434 | 15746 ft | 126 kts | 78° |
| 2025-12-08 20:46 | 28.18895 | 85.73414 | 15906 ft | 128 kts | 101° |
| 2025-12-08 20:47 | 28.19030 | 85.75393 | 16509 ft | 119 kts | 72° |
| 2025-12-08 20:47 | 28.19404 | 85.76291 | 16967 ft | 0 kts | 294° |
| 2025-12-08 20:48 | 28.19550 | 85.76064 | 18319 ft | 36 kts | 30° |
| 2025-12-08 20:49 | 28.19666 | 85.75624 | 18852 ft | 97 kts | 279° |
| 2025-12-08 20:49 | 28.20562 | 85.74584 | 18368 ft | 101 kts | 4° |
| 2025-12-08 20:50 | 28.21530 | 85.74611 | 17938 ft | 28 kts | 71° |
| 2025-12-08 20:50 | 28.21474 | 85.74484 | 17923 ft | 0 kts | 202° |
| 2025-12-08 20:51 | 28.21430 | 85.74467 | 17917 ft | 18 kts | 194° |
| 2025-12-08 20:51 | 28.20384 | 85.57918 | 12469 ft | 381 kts | 133° |
| 2025-12-08 20:52 | 28.20362 | 85.57896 | 12466 ft | 0 kts | 133° |
| 2025-12-08 20:55 | 28.20350 | 85.57911 | 12464 ft | 19 kts | 133° |
| 2025-12-08 20:56 | 28.19804 | 85.58851 | 12583 ft | 105 kts | 120° |
| 2025-12-08 20:57 | 28.19510 | 85.60333 | 13093 ft | 121 kts | 94° |
| 2025-12-08 20:58 | 28.19553 | 85.61406 | 13075 ft | 152 kts | 84° |
| 2025-12-08 20:58 | 28.19677 | 85.62524 | 13567 ft | 136 kts | 84° |
| 2025-12-08 20:58 | 28.20196 | 85.64619 | 14199 ft | 141 kts | 72° |
| 2025-12-08 20:59 | 28.20911 | 85.66711 | 14821 ft | 127 kts | 88° |
| 2025-12-08 20:59 | 28.20172 | 85.68462 | 15300 ft | 128 kts | 130° |
| 2025-12-08 21:00 | 28.19189 | 85.70163 | 16185 ft | 122 kts | 121° |
| 2025-12-08 21:01 | 28.18902 | 85.73187 | 17161 ft | 131 kts | 93° |
| 2025-12-08 21:01 | 28.18798 | 85.75035 | 18142 ft | 105 kts | 114° |
| 2025-12-08 21:02 | 28.17090 | 85.75143 | 18107 ft | 145 kts | 187° |
| 2025-12-08 21:02 | 28.15109 | 85.74870 | 18330 ft | 148 kts | 192° |
| 2025-12-08 21:02 | 28.14125 | 85.74722 | 18448 ft | 146 kts | 174° |
| 2025-12-08 21:03 | 28.12174 | 85.75133 | 18662 ft | 148 kts | 175° |
| 2025-12-08 21:03 | 28.10433 | 85.76182 | 18679 ft | 156 kts | 117° |
| 2025-12-08 21:04 | 28.09511 | 85.78427 | 18739 ft | 159 kts | 116° |
| 2025-12-08 21:05 | 28.08107 | 85.81875 | 18830 ft | 162 kts | 117° |
| 2025-12-08 21:05 | 28.07207 | 85.84216 | 18907 ft | 166 kts | 118° |
| 2025-12-08 21:06 | 28.06307 | 85.86622 | 18953 ft | 163 kts | 117° |
| 2025-12-08 21:06 | 28.05897 | 85.87801 | 18989 ft | 162 kts | 116° |
| 2025-12-08 21:06 | 28.05045 | 85.90315 | 19067 ft | 178 kts | 115° |
| 2025-12-08 21:07 | 28.04159 | 85.92915 | 19109 ft | 170 kts | 116° |
| 2025-12-08 21:07 | 28.03375 | 85.95322 | 19156 ft | 163 kts | 117° |
| 2025-12-08 21:08 | 28.02624 | 85.97786 | 19207 ft | 168 kts | 117° |
| 2025-12-08 21:09 | 28.01359 | 86.01614 | 19279 ft | 183 kts | 116° |
| 2025-12-08 21:09 | 28.00423 | 86.04325 | 19344 ft | 186 kts | 116° |
| 2025-12-08 21:09 | 27.99953 | 86.05693 | 19370 ft | 186 kts | 116° |
| 2025-12-08 21:10 | 27.98991 | 86.08422 | 19433 ft | 190 kts | 116° |
| 2025-12-08 21:10 | 27.97997 | 86.11242 | 19491 ft | 191 kts | 116° |
| 2025-12-08 21:11 | 27.97087 | 86.13894 | 19550 ft | 174 kts | 117° |
| 2025-12-08 21:11 | 27.96208 | 86.16495 | 19610 ft | 182 kts | 117° |
| 2025-12-08 21:12 | 27.95321 | 86.19158 | 19663 ft | 177 kts | 117° |
| 2025-12-08 21:13 | 27.93974 | 86.23097 | 19754 ft | 181 kts | 116° |
| 2025-12-08 21:13 | 27.93527 | 86.24422 | 19792 ft | 181 kts | 116° |
| 2025-12-08 21:13 | 27.92635 | 86.27058 | 19836 ft | 172 kts | 117° |
| 2025-12-08 21:14 | 27.91772 | 86.29626 | 19908 ft | 180 kts | 116° |
| 2025-12-08 21:14 | 27.90875 | 86.32300 | 19966 ft | 181 kts | 116° |
| 2025-12-08 21:15 | 27.90123 | 86.34515 | 20002 ft | 181 kts | 117° |
| 2025-12-08 21:15 | 27.89234 | 86.37162 | 20059 ft | 180 kts | 116° |
| 2025-12-08 21:16 | 27.88177 | 86.40218 | 20129 ft | 180 kts | 117° |
| 2025-12-08 21:17 | 27.86992 | 86.43723 | 20193 ft | 177 kts | 116° |
| 2025-12-08 21:17 | 27.86562 | 86.45018 | 20226 ft | 177 kts | 117° |
| 2025-12-08 21:17 | 27.85692 | 86.47584 | 20269 ft | 170 kts | 117° |
| 2025-12-08 21:18 | 27.84833 | 86.50146 | 20362 ft | 183 kts | 117° |
| 2025-12-08 21:18 | 27.83901 | 86.52885 | 20415 ft | 191 kts | 117° |
| 2025-12-08 21:19 | 27.83002 | 86.55650 | 20490 ft | 187 kts | 115° |
| 2025-12-08 21:19 | 27.82107 | 86.58328 | 20535 ft | 177 kts | 115° |
| 2025-12-08 21:20 | 27.81276 | 86.60901 | 20580 ft | 172 kts | 115° |
| 2025-12-08 21:20 | 27.80459 | 86.63414 | 20627 ft | 167 kts | 116° |
| 2025-12-08 21:21 | 27.79695 | 86.65780 | 20674 ft | 158 kts | 116° |
| 2025-12-08 21:21 | 27.78993 | 86.68079 | 20695 ft | 160 kts | 116° |
| 2025-12-08 21:22 | 27.78233 | 86.70539 | 20660 ft | 167 kts | 117° |
| 2025-12-08 21:22 | 27.76180 | 86.71893 | 17427 ft | 165 kts | 123° |
| 2025-12-08 21:23 | 27.74070 | 86.72132 | 15102 ft | 169 kts | 192° |
| 2025-12-08 21:23 | 27.71889 | 86.71703 | 13399 ft | 173 kts | 176° |
| 2025-12-08 21:24 | 27.70723 | 86.71854 | 12444 ft | 169 kts | 174° |
| 2025-12-08 21:24 | 27.68216 | 86.71710 | 9115 ft | 119 kts | 72° |
| 2025-12-08 21:25 | 27.68532 | 86.72656 | 9229 ft | 46 kts | 65° |
| 2025-12-08 21:25 | 27.68561 | 86.72726 | 9230 ft | 3 kts | 54° |
| 2025-12-08 21:28 | 27.68598 | 86.72796 | 9265 ft | 23 kts | 62° |
| 2025-12-08 21:28 | 27.68743 | 86.73078 | 9427 ft | 19 kts | 60° |
| 2025-12-08 21:29 | 27.68733 | 86.73171 | 9452 ft | 0 kts | 237° |